Middenmeer Aerodrome

EHMM · North Holland, Netherlands

METAR history EHMM · Middenmeer Aerodrome

Below you see METARs of the last few days. Select a year to browse through older METARs, from the year 2007 onwards.

March 3, 2024

Time Code Weather Temp. Visibility Ceiling Wind METAR/SPECI
19:55
V
9 °C 10 km+ 11,000 ft 340° 340° 3 kt METAR EHKD 031855Z AUTO 34003KT 310V010 9999 OVC110 09/07 Q1004 BLU
19:25
V
9 °C 10 km+ 10,000 ft 350° 350° 3 kt METAR EHKD 031825Z AUTO 35003KT 300V020 9999 OVC100 09/07 Q1004 BLU BECMG 28006KT
18:55
V
10 °C 10 km+ 10,000 ft 310° 310° 5 kt METAR EHKD 031755Z AUTO 31005KT 9999 OVC100 10/07 Q1003 BLU BECMG 28006KT
18:25
V
9 °C 10 km+ 11,000 ft 360° 360° 4 kt METAR EHKD 031725Z AUTO 36004KT 320V030 9999 OVC110 09/07 Q1003 BLU BECMG 28006KT
17:55
V
10 °C 10 km+ 11,000 ft 340° 340° 2 kt METAR EHKD 031655Z AUTO 34002KT 9999 OVC110 10/07 Q1003 BLU BECMG 28006KT
17:29
V
9 °C 10 km+ 11,000 ft 020° 020° 3 kt METAR EHKD 031629Z AUTO 02003KT 350V060 9999 OVC110 09/07 Q1002 BLU BECMG 28006KT
17:25
V
10 °C 10 km+ 11,000 ft 020° 020° 3 kt METAR EHKD 031625Z AUTO 02003KT 9999 OVC110 10/07 Q1002 BLU NOSIG
16:55
V
10 °C 10 km+ 11,000 ft 040° 040° 4 kt METAR EHKD 031555Z AUTO 04004KT 9999 OVC110 10/08 Q1002 BLU NOSIG
16:25
V
11 °C 10 km+ 11,000 ft 050° 050° 4 kt METAR EHKD 031525Z AUTO 05004KT 9999 BKN110 OVC220 11/09 Q1002 BLU NOSIG
15:55
V
13 °C 10 km+ 23,000 ft Var Var 2 kt METAR EHKD 031455Z AUTO VRB02KT 9999 OVC230 13/08 Q1002 BLU NOSIG
15:25
V
13 °C 10 km+ 23,000 ft Var Var 2 kt METAR EHKD 031425Z AUTO VRB02KT 9999 OVC230 13/08 Q1001 BLU NOSIG
14:55
V
12 °C 10 km+ 10,000 ft 080° 080° 3 kt METAR EHKD 031355Z AUTO 08003KT 060V120 9999 OVC100 12/08 Q1001 BLU BECMG VRB02KT
14:25
V
11 °C 10 km+ 10,000 ft 090° 090° 4 kt METAR EHKD 031325Z AUTO 09004KT 9999 OVC100 11/08 Q1001 BLU NOSIG
13:55
V
10 °C 10 km+ 10,000 ft 090° 090° 7 kt METAR EHKD 031255Z AUTO 09007KT 9999 SCT082 OVC100 10/08 Q1001 BLU
13:25
V
11 °C 10 km+ 8,800 ft 090° 090° 5 kt METAR EHKD 031225Z AUTO 09005KT 060V130 9999 FEW057 SCT079 BKN088 11/08 Q1001 REDZ BLU
13:12
V
11 °C 10 km+ 7,700 ft 110° 110° 5 kt METAR EHKD 031212Z AUTO 11005KT 080V140 9999 DZRA FEW052 BKN077 OVC082 11/08 Q1001 BLU
12:55
V
10 °C 10 km+ 6,800 ft 110° 110° 6 kt METAR EHKD 031155Z AUTO 11006KT 9999 FEW052 SCT059 BKN068 10/07 Q1001 BLU
12:25
V
10 °C 10 km+ 9,100 ft 070° 070° 5 kt METAR EHKD 031125Z AUTO 07005KT 030V100 9999 FEW050 OVC091 10/07 Q1001 BLU
11:55
V
11 °C 10 km+ 8,400 ft 110° 110° 5 kt METAR EHKD 031055Z AUTO 11005KT 9999 SCT077 BKN084 OVC091 11/07 Q1001 BLU NOSIG
11:25
V
12 °C 10 km+ 8,500 ft 120° 120° 6 kt METAR EHKD 031025Z AUTO 12006KT 9999 FEW080 BKN085 BKN092 12/07 Q1001 BLU NOSIG
10:55
V
11 °C 10 km+ 11,000 ft 120° 120° 8 kt METAR EHKD 030955Z AUTO 12008KT 9999 FEW086 OVC110 11/07 Q1001 BLU NOSIG
10:25
V
10 °C 10 km+ 8,400 ft 120° 120° 9 kt METAR EHKD 030925Z AUTO 12009KT 9999 SCT079 OVC084 10/07 Q1001 BLU NOSIG
09:55
V
9 °C 10 km+ 9,000 ft 120° 120° 9 kt METAR EHKD 030855Z AUTO 12009KT 9999 SCT054 SCT082 BKN090 09/06 Q1001 BLU NOSIG
09:25
V
9 °C 10 km+ 8,100 ft 120° 120° 7 kt METAR EHKD 030825Z AUTO 12007KT 090V150 9999 FEW063 BKN081 BKN089 09/06 Q1000 BLU NOSIG
08:55
V
8 °C 10 km+ 6,100 ft 120° 120° 9 kt METAR EHKD 030755Z AUTO 12009KT 080V140 9999 BKN061 BKN071 OVC077 08/06 Q1000 BLU NOSIG
08:25
V
8 °C 10 km+ 7,700 ft 110° 110° 9 kt METAR EHKD 030725Z AUTO 11009KT 090V150 9999 FEW061 BKN077 OVC091 08/05 Q1000 BLU NOSIG
07:55
V
8 °C 10 km+ 11,000 ft 100° 100° 8 kt METAR EHKD 030655Z AUTO 10008KT 080V140 9999 OVC110 08/05 Q1000 BLU NOSIG
07:25
V
8 °C 10 km+ 6,600 ft 110° 110° 7 kt METAR EHKD 030625Z AUTO 11007KT 080V140 9999 BKN066 OVC072 08/05 Q0999 BLU NOSIG
06:57
V
8 °C 10 km+ 10,000 ft 110° 110° 7 kt METAR EHKD 030557Z AUTO 11007KT 080V150 9999 FEW066 OVC100 08/05 Q0999 BLU NOSIG
06:25
V
8 °C 10 km+ 10,000 ft 110° 110° 7 kt METAR EHKD 030525Z AUTO 11007KT 080V140 9999 FEW057 OVC100 08/05 Q0999 BLU
05:55
V
8 °C 10 km+ 11,000 ft 110° 110° 8 kt METAR EHKD 030455Z AUTO 11008KT 080V140 9999 OVC110 08/05 Q0999 BLU
05:25
V
8 °C 10 km+ 10,000 ft 110° 110° 9 kt METAR EHKD 030425Z AUTO 11009KT 080V140 9999 OVC100 08/05 Q0998 BLU
04:55
V
9 °C 10 km+ 18,000 ft 110° 110° 8 kt METAR EHKD 030355Z AUTO 11008KT 9999 FEW098 SCT100 BKN180 09/05 Q0998 BLU
04:25
V
8 °C 10 km+ 22,000 ft 110° 110° 9 kt METAR EHKD 030325Z AUTO 11009KT 080V140 9999 OVC220 08/05 Q0998 BLU
03:55
V
8 °C 10 km+ 10,000 ft 110° 110° 9 kt METAR EHKD 030255Z AUTO 11009KT 080V140 9999 BKN100 BKN170 08/05 Q0998 BLU
03:25
V
9 °C 10 km+ 8,000 ft 110° 110° 9 kt METAR EHKD 030225Z AUTO 11009KT 080V150 9999 FEW064 BKN080 BKN100 09/05 Q0998 BLU
02:55
V
9 °C 10 km+ 7,100 ft 120° 120° 9 kt METAR EHKD 030155Z AUTO 12009KT 080V150 9999 FEW052 BKN071 OVC079 09/05 Q0998 BLU
02:25
V
9 °C 10 km+ 7,500 ft 110° 110° 10 kt METAR EHKD 030125Z AUTO 11010KT 9999 FEW052 BKN075 09/05 Q0998 BLU
01:55
V
9 °C 10 km+ 5,000 ft 110° 110° 9 kt METAR EHKD 030055Z AUTO 11009KT 080V140 9999 OVC050 09/05 Q0998 BLU
01:25
V
10 °C 10 km+ 5,100 ft 120° 120° 9 kt METAR EHKD 030025Z AUTO 12009KT 090V150 9999 OVC051 10/05 Q0998 BLU
00:55
V
10 °C 10 km+ - 140° 140° 9 kt METAR EHKD 022355Z AUTO 14009KT 110V170 9999 NCD 10/05 Q0998 BLU
00:25
V
10 °C 10 km+ - 130° 130° 10 kt METAR EHKD 022325Z AUTO 13010KT 100V160 9999 SCT290 10/05 Q0998 BLU

March 2, 2024

Time Code Weather Temp. Visibility Ceiling Wind METAR/SPECI
23:55
V
10 °C 10 km+ - 130° 130° 10 kt METAR EHKD 022255Z AUTO 13010KT 100V160 9999 FEW050 10/05 Q0998 BLU
23:25
V
9 °C 10 km+ - 110° 110° 9 kt METAR EHKD 022225Z AUTO 11009KT 080V140 9999 SCT046 09/05 Q0998 BLU
22:55
V
9 °C 10 km+ - 110° 110° 9 kt METAR EHKD 022155Z AUTO 11009KT 080V150 9999 NCD 09/05 Q0998 BLU
22:25
V
9 °C 10 km+ 23,000 ft 110° 110° 9 kt METAR EHKD 022125Z AUTO 11009KT 080V140 9999 BKN230 09/05 Q0998 BLU
21:55
V
9 °C 10 km+ 11,000 ft 120° 120° 9 kt METAR EHKD 022055Z AUTO 12009KT 080V150 9999 BKN110 OVC170 09/05 Q0998 BLU
21:25
V
9 °C 10 km+ 13,000 ft 110° 110° 9 kt METAR EHKD 022025Z AUTO 11009KT 090V150 9999 SCT064 OVC130 09/05 Q0998 BLU
20:55
V
10 °C 10 km+ 13,000 ft 120° 120° 10 kt METAR EHKD 021955Z AUTO 12010KT 080V150 9999 OVC130 10/05 Q0998 BLU
20:25
V
10 °C 10 km+ 6,700 ft 120° 120° 12 kt METAR EHKD 021925Z AUTO 12012KT 090V150 9999 BKN067 OVC100 10/05 Q0998 BLU
19:55
V
10 °C 10 km+ 12,000 ft 120° 120° 12 kt METAR EHKD 021855Z AUTO 12012KT 080V140 9999 FEW069 OVC120 10/05 Q0998 BLU NOSIG
19:25
V
10 °C 10 km+ 13,000 ft 120° 120° 11 kt METAR EHKD 021825Z AUTO 12011KT 090V150 9999 OVC130 10/05 Q0998 BLU NOSIG
18:55
V
10 °C 10 km+ 6,400 ft 110° 110° 11 kt METAR EHKD 021755Z AUTO 11011KT 9999 BKN064 OVC140 10/05 Q0998 BLU NOSIG
18:25
V
10 °C 10 km+ 6,500 ft 110° 110° 10 kt METAR EHKD 021725Z AUTO 11010KT 080V140 9999 OVC065 10/05 Q0998 BLU NOSIG
17:55
V
10 °C 10 km+ 13,000 ft 120° 120° 9 kt METAR EHKD 021655Z AUTO 12009KT 090V150 9999 OVC130 10/05 Q0998 BLU NOSIG
17:25
V
10 °C 10 km+ 8,800 ft 120° 120° 9 kt METAR EHKD 021625Z AUTO 12009KT 090V150 9999 FEW065 SCT073 BKN088 10/04 Q0998 BLU NOSIG
16:55
V
11 °C 10 km+ 8,200 ft 120° 120° 10 kt METAR EHKD 021555Z AUTO 12010KT 090V150 9999 FEW073 BKN082 OVC095 11/04 Q0998 BLU NOSIG
16:25
V
11 °C 10 km+ 9,400 ft 130° 130° 13 kt METAR EHKD 021525Z AUTO 13013KT 9999 FEW080 SCT086 BKN094 11/03 Q0998 BLU NOSIG
15:55
V
11 °C 10 km+ 9,700 ft 130° 130° 12 kt METAR EHKD 021455Z AUTO 13012KT 100V160 9999 FEW090 BKN097 BKN130 11/03 Q0998 BLU NOSIG
15:25
V
12 °C 10 km+ - 140° 140° 12 kt METAR EHKD 021425Z AUTO 14012KT 100V170 9999 NCD 12/03 Q0999 BLU NOSIG
14:58
V
12 °C 10 km+ - 150° 150° 15 kt METAR EHKD 021358Z AUTO 15015KT 100V180 9999 NCD 12/02 Q0999 BLU NOSIG
14:25
V
11 °C 10 km+ - 150° 150° 14 kt METAR EHKD 021325Z AUTO 15014KT 120V180 9999 FEW200 11/02 Q0999 BLU
13:55
V
11 °C 10 km+ - 170° 170° 15 kt METAR EHKD 021255Z AUTO 17015KT 120V210 9999 NCD 11/02 Q0999 BLU
13:25
V
11 °C 10 km+ - 170° 170° 15 kt METAR EHKD 021225Z AUTO 17015KT 140V200 9999 NCD 11/02 Q0999 BLU
12:55
V
10 °C 10 km+ - 170° 170° 17 kt METAR EHKD 021155Z AUTO 17017KT 140V200 9999 NCD 10/03 Q0999 BLU
12:25
V
10 °C 10 km+ - 170° 170° 15 kt METAR EHKD 021125Z AUTO 17015KT 130V200 9999 FEW030 10/04 Q1000 BLU
11:57
V
10 °C 10 km+ - 160° 160° 15 kt METAR EHKD 021057Z AUTO 16015KT 120V200 9999 FEW027 10/04 Q1000 BLU
11:55
V
10 °C 10 km+ - 160° 160° 16 kt METAR EHKD 021055Z AUTO 16016KT 9999 FEW025 10/04 Q1000 BLU NOSIG
11:25
V
9 °C 10 km+ - 160° 160° 16 kt METAR EHKD 021025Z AUTO 16016KT 130V190 9999 FEW023 09/04 Q0999 BLU NOSIG
10:57
V
9 °C 10 km+ - 170° 170° 16 kt METAR EHKD 020957Z AUTO 17016KT 130V190 9999 FEW020 09/04 Q0999 BLU NOSIG
10:34
V
8 °C 10 km+ - 180° 180° 16 kt METAR EHKD 020934Z AUTO 18016KT 140V200 9999 FEW020 08/03 Q0999 BLU NOSIG
10:25
M
8 °C 10 km+ 2,100 ft 170° 170° 15 kt METAR EHKD 020925Z AUTO 17015KT 140V200 9999 BKN021 BKN024 08/03 Q0999 WHT NOSIG
10:16
V
8 °C 10 km+ - 170° 170° 16 kt METAR EHKD 020916Z AUTO 17016KT 9999 SCT023 08/03 Q0999 WHT NOSIG
10:12
V
8 °C 10 km+ - 170° 170° 15 kt METAR EHKD 020912Z AUTO 17015KT 140V200 9999 FEW022 SCT025 08/03 Q0999 BLU NOSIG
10:04
V
8 °C 10 km+ - 160° 160° 14 kt METAR EHKD 020904Z AUTO 16014KT 140V200 9999 SCT022 08/04 Q0999 WHT NOSIG
09:55
V
8 °C 10 km+ - 170° 170° 14 kt METAR EHKD 020855Z AUTO 17014KT 130V190 9999 FEW031 08/03 Q0999 BLU NOSIG
09:25
V
7 °C 10 km+ 24,000 ft 170° 170° 11 kt METAR EHKD 020825Z AUTO 17011KT 9999 FEW032 BKN240 07/04 Q0999 BLU NOSIG
08:55
V
6 °C 10 km+ - 170° 170° 11 kt METAR EHKD 020755Z AUTO 17011KT 9999 NCD 06/03 Q0999 BLU NOSIG
08:25
V
5 °C 10 km+ - 180° 180° 10 kt METAR EHKD 020725Z AUTO 18010KT 9999 NCD 05/04 Q0999 BLU NOSIG
07:55
V
5 °C 10 km+ - 170° 170° 10 kt METAR EHKD 020655Z AUTO 17010KT 9999 NCD 05/03 Q0999 BLU NOSIG
07:25
V
5 °C 10 km+ - 170° 170° 11 kt METAR EHKD 020625Z AUTO 17011KT 9999 NCD 05/03 Q0998 BLU NOSIG
06:55
V
5 °C 10 km+ - 170° 170° 9 kt METAR EHKD 020555Z AUTO 17009KT 9999 SCT270 05/03 Q0998 BLU NOSIG
06:25
V
6 °C 10 km+ 3,200 ft 170° 170° 11 kt METAR EHKD 020525Z AUTO 17011KT 9999 FEW018 BKN032 06/03 Q0998 BLU NOSIG
05:55
V
6 °C 10 km+ 3,100 ft 170° 170° 12 kt METAR EHKD 020455Z AUTO 17012KT 9999 BKN031 06/04 Q0998 BLU
05:25
M
6 °C 10 km+ 2,500 ft 180° 180° 13 kt METAR EHKD 020425Z AUTO 18013KT 9999 BKN025 06/03 Q0997 BLU
05:13
M
6 °C 10 km+ 2,400 ft 180° 180° 13 kt METAR EHKD 020413Z AUTO 18013KT 9999 OVC024 06/04 Q0997 WHT
04:55
M
6 °C 10 km+ 2,600 ft 180° 180° 15 kt METAR EHKD 020355Z AUTO 18015KT 9999 BKN026 OVC029 06/04 Q0997 BLU
04:43
M
6 °C 10 km+ 2,800 ft 180° 180° 15 kt METAR EHKD 020343Z AUTO 18015KT 150V210 9999 FEW025 BKN028 06/04 Q0997 BLU
04:25
M
6 °C 10 km+ 2,000 ft 180° 180° 14 kt METAR EHKD 020325Z AUTO 18014KT 9999 FEW015CB OVC020 06/04 Q0997 WHT
04:13
M
6 °C 10 km+ 2,200 ft 180° 180° 14 kt METAR EHKD 020313Z AUTO 18014KT 9999 FEW015CB BKN022 BKN025 06/04 Q0997 WHT
04:05
V
6 °C 10 km+ 10,000 ft 180° 180° 14 kt METAR EHKD 020305Z AUTO 18014KT 9999 FEW015CB SCT025 OVC100 06/04 Q0997 BLU
03:55
M
6 °C 10 km+ 2,200 ft 180° 180° 14 kt METAR EHKD 020255Z AUTO 18014KT 150V210 9999 FEW013 FEW015CB BKN022 BKN071 06/04 Q0997 WHT
03:40
M
6 °C 10 km+ 1,500 ft 180° 180° 12 kt METAR EHKD 020240Z AUTO 18012KT 9999 -DZ FEW011 BKN015CB BKN018 06/05 Q0997 WHT
03:32
V
6 °C 10 km+ 3,500 ft 190° 190° 11 kt METAR EHKD 020232Z AUTO 19011KT 9999 -DZ FEW012 FEW015CB SCT025 OVC035 06/05 Q0997 BLU
03:27
V
6 °C 10 km+ 3,100 ft 190° 190° 12 kt METAR EHKD 020227Z AUTO 19012KT 9999 -DZ SCT015CB SCT026 OVC031 06/04 Q0997 WHT
03:25
M
6 °C 10 km+ 3,000 ft 190° 190° 12 kt METAR EHKD 020225Z AUTO 19012KT 9999 -DZ FEW015CB BKN030 BKN035 06/04 Q0997 BLU
03:11
V
7 °C 10 km+ 7,300 ft 190° 190° 15 kt METAR EHKD 020211Z AUTO 19015KT 9999 -DZ FEW015CB SCT064 OVC073 07/04 Q0996 BLU
03:01
M
7 °C 10 km+ 1,600 ft 190° 190° 15 kt METAR EHKD 020201Z AUTO 19015KT 9999 -DZ FEW013 FEW015CB OVC016 07/05 Q0996 WHT
02:57
M
7 °C 10 km+ 1,600 ft 180° 180° 16 kt METAR EHKD 020157Z AUTO 18016KT 9999 DZ SCT014 FEW015CB OVC016 07/05 Q0996 GRN
02:44
V
7 °C 10 km+ 6,500 ft 180° 180° 15 kt METAR EHKD 020144Z AUTO 18015KT 9999 FEW015CB SCT019 OVC065 07/05 Q0996 WHT
02:25
M
7 °C 10 km+ 2,500 ft 180° 180° 16 kt METAR EHKD 020125Z AUTO 18016KT 9999 -DZ FEW015CB OVC025 07/05 Q0996 REDZ BLU
02:18
M
7 °C 10 km+ 2,700 ft 190° 190° 17 kt METAR EHKD 020118Z AUTO 19017KT 9999 DZ FEW015CB SCT023 OVC027 07/05 Q0996 WHT
02:11
V
8 °C 10 km+ 3,100 ft 180° 180° 16 kt METAR EHKD 020111Z AUTO 18016KT 9999 -DZRA FEW015CB SCT027 BKN031 08/04 Q0996 BLU
02:06
V
8 °C 10 km+ 4,400 ft 180° 180° 15 kt METAR EHKD 020106Z AUTO 18015KT 150V210 9999 -RA FEW015CB SCT029 BKN044 08/04 Q0996 BLU
01:57
V
8 °C 10 km+ 3,200 ft 170° 170° 17 kt METAR EHKD 020057Z AUTO 17017KT 140V200 9999 DZRA FEW015CB BKN032 OVC036 08/04 Q0996 BLU
01:25
V
8 °C 10 km+ 3,100 ft 140° 140° 16 kt METAR EHKD 020025Z AUTO 14016KT 9999 FEW016CB OVC031 08/04 Q0996 BLU
00:55
V
8 °C 10 km+ 3,300 ft 130° 130° 16 kt METAR EHKD 012355Z AUTO 13016KT 100V160 9999 -RA FEW016CB OVC033 08/04 Q0995 RERA REDZ BLU
00:25
V
8 °C 10 km+ 4,200 ft 130° 130° 15 kt METAR EHKD 012325Z AUTO 13015KT 100V160 9999 -DZ FEW018CB BKN042 OVC058 08/04 Q0996 BLU

March 1, 2024

Time Code Weather Temp. Visibility Ceiling Wind METAR/SPECI
23:55
V
8 °C 10 km+ 3,300 ft 120° 120° 15 kt METAR EHKD 012255Z AUTO 12015KT 9999 BKN033 BKN070 08/04 Q0996 BLU
23:25
V
8 °C 10 km+ 4,100 ft 110° 110° 11 kt METAR EHKD 012225Z AUTO 11011KT 090V150 9999 SCT033 BKN041 OVC065 08/05 Q0997 BLU
22:55
V
7 °C 10 km+ 3,400 ft 100° 100° 8 kt METAR EHKD 012155Z AUTO 10008KT 060V130 9999 FEW029 BKN034 BKN039 07/05 Q0997 BLU
22:25
V
7 °C 10 km+ 3,100 ft 110° 110° 8 kt METAR EHKD 012125Z AUTO 11008KT 080V140 9999 BKN031 BKN041 OVC058 07/05 Q0998 BLU
21:55
V
7 °C 10 km+ 3,900 ft 140° 140° 7 kt METAR EHKD 012055Z AUTO 14007KT 110V170 9999 BKN039 BKN046 OVC140 07/04 Q0998 BLU
21:25
M
7 °C 10 km+ 3,000 ft 160° 160° 9 kt METAR EHKD 012025Z AUTO 16009KT 9999 BKN030 BKN035 OVC040 07/04 Q0998 BLU NOSIG
20:55
V
7 °C 10 km+ 3,800 ft 170° 170° 10 kt METAR EHKD 011955Z AUTO 17010KT 130V200 9999 SCT034 OVC038 07/05 Q0999 BLU NOSIG
20:25
V
6 °C 10 km+ 8,600 ft 150° 150° 6 kt METAR EHKD 011925Z AUTO 15006KT 100V170 9999 FEW032 SCT073 BKN086 06/05 Q0999 BLU NOSIG
20:08
V
6 °C 10 km+ 5,700 ft 160° 160° 8 kt METAR EHKD 011908Z AUTO 16008KT 9999 FEW021 BKN057 BKN065 06/05 Q0999 BLU NOSIG
19:57
M
6 °C 10 km+ 2,400 ft 160° 160° 8 kt METAR EHKD 011857Z AUTO 16008KT 9999 OVC024 06/05 Q0999 WHT NOSIG
19:25
V
6 °C 10 km+ 5,600 ft 150° 150° 8 kt METAR EHKD 011825Z AUTO 15008KT 120V180 9999 FEW015CB SCT029 BKN056 06/05 Q0999 BLU NOSIG
18:55
M
6 °C 10 km+ 2,900 ft 160° 160° 10 kt METAR EHKD 011755Z AUTO 16010KT 9999 FEW015CB BKN029 OVC032 06/04 Q0999 BLU NOSIG
18:44
V
6 °C 10 km+ 3,100 ft 160° 160° 10 kt METAR EHKD 011744Z AUTO 16010KT 9999 FEW023 SCT027 BKN031 06/04 Q0999 BLU NOSIG
18:31
M
6 °C 10 km+ 2,400 ft 170° 170° 10 kt METAR EHKD 011731Z AUTO 17010KT 9999 BKN024 BKN028 OVC032 06/04 Q0999 WHT NOSIG
18:25
V
6 °C 10 km+ 4,100 ft 180° 180° 11 kt METAR EHKD 011725Z AUTO 18011KT 9999 FEW025 SCT029 BKN041 06/04 Q0999 BLU NOSIG
18:15
V
6 °C 10 km+ 4,200 ft 180° 180° 10 kt METAR EHKD 011715Z AUTO 18010KT 9999 FEW030 BKN042 BKN047 06/04 Q0999 BLU NOSIG
18:07
V
5 °C 10 km+ - 180° 180° 10 kt METAR EHKD 011707Z AUTO 18010KT 9999 FEW031 SCT044 05/04 Q0999 BLU TEMPO SCT015
17:55
M
5 °C 10 km+ 2,800 ft 200° 200° 14 kt METAR EHKD 011655Z AUTO 20014KT 9999 -RA FEW024 BKN028 OVC032 05/04 Q0999 RERA REDZ BLU TEMPO SCT015
17:39
M
5 °C 8 km 2,600 ft 210° 210° 17 kt METAR EHKD 011639Z AUTO 21017KT 8000 DZ BKN026 OVC029 05/04 Q0999 BLU TEMPO SCT015
17:35
M
5 °C 7 km 2,600 ft 220° 220° 17 kt METAR EHKD 011635Z AUTO 22017KT 7000 DZRA FEW015CB OVC026 05/04 Q0999 WHT TEMPO SCT015
17:31
M
5 °C 8 km 2,500 ft 220° 220° 16 kt METAR EHKD 011631Z AUTO 22016KT 8000 -RA FEW015CB OVC025 05/04 Q0999 BLU TEMPO SCT015
17:25
M
5 °C 10 km+ 2,300 ft 220° 220° 18 - 29 kt METAR EHKD 011625Z AUTO 22018G29KT 190V250 9999 -RA FEW015CB BKN023 OVC026 05/03 Q0999 RERA REDZ WHT TEMPO SCT015
17:15
M
5 °C 6 km 2,100 ft 220° 220° 20 kt METAR EHKD 011615Z AUTO 22020KT 190V250 6000 -SHRA +DZ FEW017 BKN021 BKN025 05/03 Q0999 WHT TEMPO SCT015
17:11
M
5 °C 10 km+ 2,800 ft 220° 220° 20 kt METAR EHKD 011611Z AUTO 22020KT 190V250 9999 +DZ FEW017 SCT021 BKN028 05/02 Q0998 WHT TEMPO SCT015
17:02
V
9 °C 10 km+ 3,500 ft 170° 170° 16 kt METAR EHKD 011602Z AUTO 17016KT 140V200 9999 SCT029 BKN035 BKN044 09/04 Q0998 BLU TEMPO SCT015
16:55
V
9 °C 10 km+ 5,400 ft 160° 160° 18 kt METAR EHKD 011555Z AUTO 16018KT 9999 FEW031 SCT048 OVC054 09/04 Q0998 BLU NOSIG
16:25
V
9 °C 10 km+ 3,100 ft 160° 160° 15 - 25 kt METAR EHKD 011525Z AUTO 16015G25KT 130V200 9999 OVC031 09/04 Q0998 BLU NOSIG
15:55
M
8 °C 10 km+ 3,000 ft 160° 160° 17 kt METAR EHKD 011455Z AUTO 16017KT 140V200 9999 FEW027 BKN030 OVC034 08/04 Q0998 BLU TEMPO SCT015
15:25
V
8 °C 10 km+ 3,600 ft 160° 160° 20 kt METAR EHKD 011425Z AUTO 16020KT 130V200 9999 -RA FEW015CB SCT029 BKN036 08/04 Q0998 RERA REDZ BLU TEMPO SCT015
14:55
V
9 °C 10 km+ 3,400 ft 160° 160° 20 - 30 kt METAR EHKD 011355Z AUTO 16020G30KT 130V200 9999 SCT028 BKN034 BKN040 09/03 Q0998 BLU TEMPO SCT015
14:44
V
9 °C 10 km+ 3,500 ft 160° 160° 18 kt METAR EHKD 011344Z AUTO 16018KT 130V190 9999 SCT030 BKN035 BKN040 09/03 Q0998 BLU TEMPO SCT015
14:25
V
9 °C 10 km+ 4,000 ft 160° 160° 18 kt METAR EHKD 011325Z AUTO 16018KT 130V200 9999 FEW026 BKN040 OVC045 09/03 Q0998 BLU BECMG SCT015 OVC020
13:55
V
9 °C 10 km+ 6,600 ft 150° 150° 18 kt METAR EHKD 011255Z AUTO 15018KT 130V190 9999 FEW052 OVC066 09/04 Q0998 BLU BECMG SCT015 OVC020
13:31
V
9 °C 10 km+ 7,400 ft 160° 160° 16 kt METAR EHKD 011231Z AUTO 16016KT 120V200 9999 FEW022 OVC074 09/04 Q0998 BLU BECMG SCT015 OVC020
13:27
V
9 °C 10 km+ 7,800 ft 150° 150° 17 kt METAR EHKD 011227Z AUTO 15017KT 120V180 9999 SCT022 BKN078 BKN084 09/04 Q0998 WHT BECMG SCT015 OVC020
13:25
V
9 °C 10 km+ 9,600 ft 150° 150° 16 kt METAR EHKD 011225Z AUTO 15016KT 120V190 9999 FEW022 SCT026 BKN096 09/04 Q0998 BLU BECMG SCT015 OVC020
13:06
V
9 °C 10 km+ 8,600 ft 160° 160° 19 kt METAR EHKD 011206Z AUTO 16019KT 130V190 9999 FEW021 SCT024 BKN086 09/04 Q0999 WHT BECMG SCT015 OVC020
13:02
V
9 °C 10 km+ 8,600 ft 160° 160° 19 kt METAR EHKD 011202Z AUTO 16019KT 110V190 9999 FEW021 SCT025 BKN086 09/04 Q0999 BLU BECMG SCT015 OVC020
12:55
M
9 °C 10 km+ 2,300 ft 150° 150° 16 kt METAR EHKD 011155Z AUTO 15016KT 110V190 9999 SCT020 BKN023 BKN027 09/04 Q0999 WHT BECMG SCT015 OVC020
12:25
M
9 °C 10 km+ 1,900 ft 160° 160° 17 kt METAR EHKD 011125Z AUTO 16017KT 130V190 9999 BKN019 OVC024 09/04 Q0999 WHT BECMG SCT015 OVC020
11:57
M
9 °C 10 km+ 2,100 ft 170° 170° 16 kt METAR EHKD 011057Z AUTO 17016KT 140V200 9999 SCT018 BKN021 BKN190 09/04 Q1000 WHT BECMG SCT015 OVC020
11:25
V
9 °C 10 km+ - 180° 180° 17 kt METAR EHKD 011025Z AUTO 18017KT 9999 FEW018 09/05 Q1000 BLU NOSIG
11:13
V
8 °C 10 km+ - 180° 180° 14 kt METAR EHKD 011013Z AUTO 18014KT 140V210 9999 FEW016 08/04 Q1000 BLU NOSIG
11:02
V
8 °C 10 km+ - 180° 180° 15 kt METAR EHKD 011002Z AUTO 18015KT 140V210 9999 SCT018 08/04 Q1000 WHT NOSIG
10:55
V
8 °C 10 km+ - 170° 170° 13 kt METAR EHKD 010955Z AUTO 17013KT 140V210 9999 FEW021 08/04 Q1000 BLU NOSIG
10:31
V
8 °C 10 km+ - 180° 180° 14 kt METAR EHKD 010931Z AUTO 18014KT 9999 FEW015 08/04 Q1001 BLU BECMG SCT025
10:25
M
8 °C 10 km+ 1,600 ft 180° 180° 14 kt METAR EHKD 010925Z AUTO 18014KT 9999 FEW014 BKN016 BKN020 08/05 Q1001 WHT BECMG SCT025
09:55
M
8 °C 10 km+ 1,600 ft 180° 180° 11 kt METAR EHKD 010855Z AUTO 18011KT 150V210 9999 FEW014 BKN016 BKN019 08/05 Q1001 WHT BECMG SCT025
09:40
M
8 °C 10 km+ 1,900 ft 190° 190° 11 kt METAR EHKD 010840Z AUTO 19011KT 160V220 9999 SCT015 BKN019 08/05 Q1001 WHT BECMG SCT025
09:36
V
8 °C 10 km+ - 190° 190° 11 kt METAR EHKD 010836Z AUTO 19011KT 160V220 9999 FEW012 SCT015 08/05 Q1001 WHT BECMG SCT025
09:25
V
7 °C 10 km+ - 190° 190° 10 kt METAR EHKD 010825Z AUTO 19010KT 9999 NCD 07/05 Q1000 BLU BECMG SCT025
08:55
V
7 °C 10 km+ - 210° 210° 9 kt METAR EHKD 010755Z AUTO 21009KT 180V240 9999 NCD 07/04 Q1000 BLU BECMG SCT025
08:41
V
6 °C 10 km+ - 210° 210° 9 kt METAR EHKD 010741Z AUTO 21009KT 180V240 9999 FEW014 06/04 Q1000 BLU BECMG SCT025
08:33
M
6 °C 10 km+ 1,400 ft 210° 210° 9 kt METAR EHKD 010733Z AUTO 21009KT 9999 BKN014 BKN016 06/04 Q1000 GRN BECMG SCT025
08:29
M
6 °C 10 km+ 1,500 ft 210° 210° 8 kt METAR EHKD 010729Z AUTO 21008KT 9999 FEW011 BKN015 OVC019 06/04 Q1000 WHT BECMG SCT025
08:25
M
6 °C 10 km+ 1,200 ft 210° 210° 6 kt METAR EHKD 010725Z AUTO 21006KT 9999 FEW010 BKN012 BKN015 06/05 Q1000 GRN BECMG SCT025
08:16
M
6 °C 10 km+ 1,300 ft 220° 220° 7 kt METAR EHKD 010716Z AUTO 22007KT 9999 FEW011 BKN013 OVC036 06/05 Q1000 GRN BECMG SCT025
08:01
V
6 °C 10 km+ 3,100 ft 230° 230° 7 kt METAR EHKD 010701Z AUTO 23007KT 9999 FEW010 BKN031 OVC036 06/04 Q1000 BLU BECMG SCT025
07:55
M
6 °C 10 km+ 1,700 ft 230° 230° 8 kt METAR EHKD 010655Z AUTO 23008KT 9999 FEW010 SCT014 BKN017 06/04 Q1000 GRN BECMG SCT025
07:42
M
6 °C 10 km+ 1,700 ft 240° 240° 8 kt METAR EHKD 010642Z AUTO 24008KT 9999 FEW012 OVC017 06/04 Q1000 WHT BECMG SCT025
07:32
M
6 °C 10 km+ 1,500 ft 240° 240° 6 kt METAR EHKD 010632Z AUTO 24006KT 9999 SCT012 BKN015 OVC019 06/04 Q1000 GRN BECMG SCT025
07:27
M
6 °C 10 km+ 1,900 ft 250° 250° 6 kt METAR EHKD 010627Z AUTO 25006KT 9999 SCT012 SCT016 BKN019 06/04 Q1000 GRN BECMG SCT025
07:25
M
6 °C 10 km+ 1,900 ft 250° 250° 6 kt METAR EHKD 010625Z AUTO 25006KT 9999 FEW013 SCT015 BKN019 06/04 Q1000 WHT BECMG SCT025
07:05
M
6 °C 10 km+ 1,600 ft 260° 260° 8 kt METAR EHKD 010605Z AUTO 26008KT 230V290 9999 FEW014 BKN016 OVC021 06/04 Q1000 WHT BECMG SCT035
06:55
M
6 °C 10 km+ 1,600 ft 270° 270° 11 kt METAR EHKD 010555Z AUTO 27011KT 240V300 9999 FEW013 OVC016 06/04 Q1000 WHT